Time;durP1;ratioP1;P1;durP2;ratioP2;P2;SDS_P1;SDS_P2;PMS_P1;PMS_P2;Temp;Humidity;BMP_temperature;BMP_pressure;BME280_temperature;BME280_humidity;BME280_pressure;Samples;Min_cycle;Max_cycle;Signal;HPM_P1;HPM_P2
2022/12/13 16:13:47;;;;;;;33.00;14.68;;;0.30;99.90;;;;;;5089392;27;20382;-73
2022/12/13 16:16:26;;;;;;;27.52;12.27;;;2.30;99.90;;;;;;5090068;28;20028;-73
2022/12/13 16:18:54;;;;;;;22.80;11.90;;;4.20;99.90;;;;;;5089969;28;20556;-75
2022/12/13 16:21:20;;;;;;;23.55;10.45;;;5.70;99.90;;;;;;5089836;28;20450;-74
2022/12/13 16:23:46;;;;;;;24.50;9.65;;;7.00;99.90;;;;;;5089987;28;20027;-74
2022/12/13 16:26:12;;;;;;;14.77;9.30;;;7.90;99.90;;;;;;5090163;28;20029;-73
2022/12/13 16:28:39;;;;;;;18.20;9.70;;;8.80;99.90;;;;;;5086244;28;20028;-73
2022/12/13 16:31:23;;;;;;;18.13;7.90;;;9.50;99.90;;;;;;5089835;28;20082;-72
2022/12/13 16:33:50;;;;;;;17.55;9.13;;;10.10;99.90;;;;;;5087255;28;20036;-73
2022/12/13 16:36:16;;;;;;;17.02;7.47;;;10.60;99.90;;;;;;5086900;28;20427;-73
2022/12/13 16:38:42;;;;;;;12.35;7.43;;;11.00;99.90;;;;;;5068761;28;20237;-73
2022/12/13 16:41:09;;;;;;;14.38;7.78;;;11.40;99.90;;;;;;5088247;28;20085;-73
2022/12/13 16:43:38;;;;;;;18.73;8.45;;;11.70;99.90;;;;;;5089796;28;20081;-74
2022/12/13 16:46:05;;;;;;;14.00;7.35;;;11.90;99.90;;;;;;5089072;28;20025;-75
2022/12/13 16:48:31;;;;;;;25.33;7.70;;;12.20;99.90;;;;;;5090212;28;20119;-73
2022/12/13 16:50:57;;;;;;;15.00;6.40;;;12.50;99.90;;;;;;5085142;28;20132;-74
2022/12/13 16:53:23;;;;;;;15.98;6.72;;;12.80;99.90;;;;;;5089802;28;20134;-74
2022/12/13 16:55:49;;;;;;;32.47;8.02;;;13.00;99.90;;;;;;5088957;28;20033;-81
2022/12/13 16:58:16;;;;;;;17.13;8.30;;;13.20;99.90;;;;;;5089315;28;20032;-77
2022/12/13 17:00:44;;;;;;;15.70;8.60;;;13.30;99.90;;;;;;5088869;28;20111;-76
2022/12/13 17:03:12;;;;;;;26.90;8.23;;;13.40;99.90;;;;;;5088865;28;20039;-72
2022/12/13 17:05:40;;;;;;;17.63;8.43;;;13.50;99.90;;;;;;5091356;28;20441;-73
2022/12/13 17:08:06;;;;;;;17.02;8.02;;;13.50;99.90;;;;;;5091132;28;20024;-73
2022/12/13 17:10:32;;;;;;;11.45;7.07;;;13.60;99.90;;;;;;5091610;28;20020;-73
2022/12/13 17:12:58;;;;;;;9.45;6.03;;;13.60;99.90;;;;;;5091209;28;20538;-73
2022/12/13 17:15:24;;;;;;;12.75;6.68;;;13.70;99.90;;;;;;5090607;28;20028;-73
2022/12/13 17:17:50;;;;;;;13.35;5.97;;;13.80;99.90;;;;;;5090804;28;20343;-73
2022/12/13 17:20:17;;;;;;;9.82;6.47;;;13.80;99.90;;;;;;5091901;28;20024;-74
2022/12/13 17:22:44;;;;;;;10.65;6.57;;;13.90;99.90;;;;;;5091624;28;20427;-71
2022/12/13 17:25:11;;;;;;;16.05;7.72;;;13.90;99.90;;;;;;5077086;28;20074;-71
2022/12/13 17:27:38;;;;;;;10.00;6.60;;;14.00;99.90;;;;;;5076342;28;20028;-72
2022/12/13 17:30:07;;;;;;;17.35;7.88;;;14.00;99.90;;;;;;5078082;28;20079;-72
2022/12/13 17:32:34;;;;;;;10.23;6.90;;;14.00;99.90;;;;;;5065734;28;20040;-72
2022/12/13 17:35:01;;;;;;;15.35;6.47;;;14.00;99.90;;;;;;5058788;28;20029;-72
2022/12/13 17:37:27;;;;;;;13.68;6.57;;;14.10;99.90;;;;;;5058018;28;20351;-72
2022/12/13 17:39:53;;;;;;;12.95;6.63;;;14.00;99.90;;;;;;5057923;28;20029;-73
2022/12/13 17:42:19;;;;;;;12.43;6.75;;;14.10;99.90;;;;;;5057163;28;20129;-70
2022/12/13 17:44:45;;;;;;;12.95;7.05;;;14.10;99.90;;;;;;5056860;28;20096;-71
2022/12/13 17:47:12;;;;;;;13.65;7.47;;;14.10;99.90;;;;;;5057764;28;20119;-72
2022/12/13 17:49:38;;;;;;;12.95;7.10;;;14.10;99.90;;;;;;5070108;28;20037;-69
2022/12/13 17:52:04;;;;;;;18.30;8.35;;;14.10;99.90;;;;;;5075036;28;20412;-70
2022/12/13 17:54:30;;;;;;;14.45;7.45;;;14.10;99.90;;;;;;5075382;28;20067;-71
2022/12/13 17:56:56;;;;;;;11.23;7.18;;;14.10;99.90;;;;;;5074628;28;20617;-71
2022/12/13 17:59:22;;;;;;;13.80;7.25;;;14.20;99.90;;;;;;5073841;28;20079;-72
2022/12/13 18:01:49;;;;;;;19.48;7.60;;;14.20;99.90;;;;;;5074275;28;20064;-71
2022/12/13 18:04:15;;;;;;;14.07;8.00;;;14.20;99.90;;;;;;5074094;28;20143;-72
2022/12/13 18:06:41;;;;;;;13.52;8.02;;;14.20;99.90;;;;;;5074807;28;20454;-71
2022/12/13 18:09:08;;;;;;;11.80;7.95;;;14.20;99.90;;;;;;5074768;28;20042;-71
2022/12/13 18:11:34;;;;;;;13.63;8.45;;;14.10;99.90;;;;;;5074264;28;20044;-71
2022/12/13 18:14:05;;;;;;;15.25;8.07;;;14.20;99.90;;;;;;5074420;28;20053;-72
2022/12/13 18:16:31;;;;;;;13.15;7.63;;;14.20;99.90;;;;;;5073611;28;20047;-72
2022/12/13 18:18:57;;;;;;;13.88;8.38;;;14.20;99.90;;;;;;5074589;28;20032;-72
2022/12/13 18:21:25;;;;;;;14.32;8.15;;;14.20;99.90;;;;;;5074730;28;20016;-69
2022/12/13 18:23:51;;;;;;;14.30;7.57;;;14.20;99.90;;;;;;5076690;28;20028;-70
2022/12/13 18:26:17;;;;;;;13.85;8.05;;;14.20;99.90;;;;;;5076849;28;20060;-68
2022/12/13 18:28:44;;;;;;;14.25;9.18;;;14.20;99.90;;;;;;5075790;28;20339;-69
2022/12/13 18:31:14;;;;;;;12.88;9.15;;;14.20;99.90;;;;;;5076079;28;20037;-68
2022/12/13 18:33:40;;;;;;;18.23;9.27;;;14.30;99.90;;;;;;5057118;28;20374;-68
2022/12/13 18:36:07;;;;;;;12.18;8.57;;;14.30;99.90;;;;;;5055778;28;20021;-68
2022/12/13 18:38:34;;;;;;;13.27;8.60;;;14.30;99.90;;;;;;5056072;28;20044;-68
2022/12/13 18:41:12;;;;;;;16.15;10.25;;;14.30;99.90;;;;;;5056167;28;20048;-65
2022/12/13 18:43:38;;;;;;;13.23;8.93;;;14.30;99.90;;;;;;5057975;28;20028;-67
2022/12/13 18:46:05;;;;;;;13.75;9.02;;;14.30;99.90;;;;;;5065815;28;20343;-68
2022/12/13 18:48:31;;;;;;;15.65;8.75;;;14.30;99.90;;;;;;5072656;28;20035;-68
2022/12/13 18:50:59;;;;;;;14.63;9.07;;;14.40;99.90;;;;;;5074402;28;20025;-68
2022/12/13 18:53:26;;;;;;;10.63;7.57;;;14.40;99.90;;;;;;5077927;28;20035;-68
2022/12/13 18:55:52;;;;;;;13.40;8.40;;;14.30;99.90;;;;;;5076069;28;20028;-68
2022/12/13 18:58:18;;;;;;;11.48;7.78;;;14.40;99.90;;;;;;5072915;28;20031;-67
2022/12/13 19:00:44;;;;;;;14.18;8.50;;;14.40;99.90;;;;;;5073737;28;20039;-67
2022/12/13 19:03:10;;;;;;;12.15;8.02;;;14.40;99.90;;;;;;5070107;28;20039;-68
2022/12/13 19:05:36;;;;;;;11.88;7.28;;;14.40;99.90;;;;;;5084530;28;20136;-67
2022/12/13 19:08:02;;;;;;;9.57;7.10;;;14.40;99.90;;;;;;5064412;28;20079;-68
2022/12/13 19:10:28;;;;;;;13.18;8.52;;;14.40;99.90;;;;;;5075821;28;20043;-68
2022/12/13 19:12:53;;;;;;;13.68;8.85;;;14.40;99.90;;;;;;5066829;28;20051;-67
2022/12/13 19:15:19;;;;;;;13.18;9.63;;;14.40;99.90;;;;;;5068794;28;20032;-67
2022/12/13 19:17:46;;;;;;;12.77;8.70;;;14.50;99.90;;;;;;5072056;28;20029;-66
2022/12/13 19:20:12;;;;;;;12.20;8.30;;;14.50;99.90;;;;;;5074573;28;20029;-66
2022/12/13 19:22:38;;;;;;;11.82;7.70;;;14.50;99.90;;;;;;5059631;28;20059;-67
2022/12/13 19:25:05;;;;;;;10.48;7.85;;;14.50;99.90;;;;;;5075369;28;20056;-68
2022/12/13 19:27:31;;;;;;;13.10;7.45;;;14.60;99.90;;;;;;5074418;28;20399;-68
2022/12/13 19:29:57;;;;;;;11.90;8.02;;;14.60;99.90;;;;;;5074907;28;20111;-68
2022/12/13 19:32:23;;;;;;;13.98;8.55;;;14.50;99.90;;;;;;5073735;28;20128;-67
2022/12/13 19:34:49;;;;;;;10.65;8.20;;;14.60;99.90;;;;;;5075099;28;20381;-68
2022/12/13 19:37:15;;;;;;;14.90;9.38;;;14.60;99.90;;;;;;5074748;28;20111;-68
2022/12/13 19:39:41;;;;;;;14.57;9.00;;;14.60;99.90;;;;;;5061749;28;20025;-67
2022/12/13 19:42:07;;;;;;;14.38;9.68;;;14.60;99.90;;;;;;5072954;28;20408;-68
2022/12/13 19:44:33;;;;;;;13.23;8.63;;;14.60;99.90;;;;;;5058773;28;20025;-68
2022/12/13 19:46:59;;;;;;;15.10;9.07;;;14.60;99.90;;;;;;5067104;28;20028;-68
2022/12/13 19:49:25;;;;;;;12.75;9.02;;;14.60;99.90;;;;;;5056015;28;20037;-68
2022/12/13 19:51:51;;;;;;;14.30;9.10;;;14.70;99.90;;;;;;5053975;28;20107;-68
2022/12/13 19:54:17;;;;;;;12.27;8.88;;;14.70;99.90;;;;;;5062276;28;20416;-67
2022/12/13 19:56:42;;;;;;;13.30;9.18;;;14.70;99.90;;;;;;5067683;28;20025;-67
2022/12/13 19:59:09;;;;;;;14.38;8.90;;;14.70;99.90;;;;;;5057404;28;20071;-69
2022/12/13 20:01:35;;;;;;;13.18;9.30;;;14.70;99.90;;;;;;5054511;28;20036;-68
2022/12/13 20:04:01;;;;;;;14.95;10.20;;;14.70;99.90;;;;;;5054534;28;20031;-69
2022/12/13 20:06:27;;;;;;;15.43;10.55;;;14.70;99.90;;;;;;5054988;28;20029;-69
2022/12/13 20:08:53;;;;;;;13.38;10.57;;;14.70;99.90;;;;;;5070451;28;20025;-68
2022/12/13 20:11:21;;;;;;;15.25;10.48;;;14.70;99.90;;;;;;5054210;28;20603;-69
2022/12/13 20:13:51;;;;;;;12.85;10.35;;;14.80;99.90;;;;;;5054162;28;20095;-69
2022/12/13 20:16:22;;;;;;;14.75;10.02;;;14.80;99.90;;;;;;5054146;28;20074;-68
2022/12/13 20:18:59;;;;;;;16.67;10.73;;;14.80;99.90;;;;;;5062738;28;20036;-69
2022/12/13 20:21:27;;;;;;;14.65;10.55;;;14.80;99.90;;;;;;5056530;28;20075;-68
2022/12/13 20:23:53;;;;;;;15.07;9.88;;;14.80;99.90;;;;;;5054924;28;20060;-69
2022/12/13 20:26:22;;;;;;;13.27;10.15;;;14.80;99.90;;;;;;5054123;28;20044;-69
2022/12/13 20:28:49;;;;;;;17.25;10.05;;;14.80;99.90;;;;;;5056018;28;20033;-69
2022/12/13 20:31:18;;;;;;;13.43;9.57;;;14.80;99.90;;;;;;5063033;28;20063;-69
2022/12/13 20:33:44;;;;;;;13.52;9.93;;;14.80;99.90;;;;;;5065987;28;20036;-69
2022/12/13 20:36:17;;;;;;;13.60;9.15;;;14.80;99.90;;;;;;5054293;28;20033;-69
2022/12/13 20:38:44;;;;;;;13.52;10.00;;;14.90;99.90;;;;;;5054182;28;20607;-69
2022/12/13 20:41:13;;;;;;;16.38;10.48;;;14.80;99.90;;;;;;5055100;28;20050;-73
2022/12/13 20:43:41;;;;;;;14.57;11.40;;;14.90;99.90;;;;;;5065677;28;20332;-70
2022/12/13 20:46:09;;;;;;;13.73;10.85;;;14.90;99.90;;;;;;5050564;28;20040;-70
2022/12/13 20:48:37;;;;;;;16.45;11.13;;;14.90;99.90;;;;;;5054571;28;20025;-70
2022/12/13 20:51:05;;;;;;;14.77;11.00;;;14.90;99.90;;;;;;5060538;28;20416;-69
2022/12/13 20:53:39;;;;;;;16.05;10.75;;;14.90;99.90;;;;;;5050678;28;20045;-69
2022/12/13 20:56:09;;;;;;;14.60;9.93;;;14.90;99.90;;;;;;5051391;28;20025;-69
2022/12/13 20:58:36;;;;;;;13.63;9.68;;;14.90;99.90;;;;;;5052649;28;20056;-69
2022/12/13 21:01:05;;;;;;;14.00;9.57;;;15.00;99.90;;;;;;5054641;28;20106;-68
2022/12/13 21:03:32;;;;;;;15.43;10.30;;;14.90;99.90;;;;;;5055878;28;20029;-68
2022/12/13 21:05:58;;;;;;;14.50;9.45;;;14.90;99.90;;;;;;5055271;28;20120;-68
2022/12/13 21:11:23;;;;;;;13.70;9.07;;;15.00;99.90;;;;;;5054750;28;20491;-71
2022/12/13 21:13:58;;;;;;;14.98;10.18;;;15.00;99.90;;;;;;5055728;28;20057;-71
2022/12/13 21:16:26;;;;;;;18.25;10.10;;;15.00;99.90;;;;;;5055597;28;20025;-70
2022/12/13 21:18:56;;;;;;;16.15;9.88;;;15.00;99.90;;;;;;5054799;28;20045;-71
2022/12/13 21:21:24;;;;;;;15.50;9.75;;;15.00;99.90;;;;;;5071907;28;20029;-71
2022/12/13 21:23:52;;;;;;;15.85;8.88;;;15.00;99.90;;;;;;5066455;28;20036;-69
2022/12/13 21:26:18;;;;;;;16.80;9.73;;;15.00;99.90;;;;;;5055520;28;20403;-69
2022/12/13 21:28:45;;;;;;;13.93;9.85;;;15.00;99.90;;;;;;5062754;28;20056;-70
2022/12/13 21:31:12;;;;;;;12.82;8.27;;;15.00;99.90;;;;;;5072841;28;20041;-70
2022/12/13 21:33:39;;;;;;;14.32;8.43;;;15.00;99.90;;;;;;5076250;28;20028;-70
2022/12/13 21:36:14;;;;;;;15.75;8.27;;;15.00;99.90;;;;;;5075099;28;20025;-70
2022/12/13 21:38:41;;;;;;;14.93;9.00;;;15.00;99.90;;;;;;5075176;28;20153;-69
2022/12/13 21:41:08;;;;;;;17.42;9.90;;;14.90;99.90;;;;;;5057924;28;20025;-70
2022/12/13 21:43:36;;;;;;;13.10;8.40;;;15.00;99.90;;;;;;5076686;28;20309;-70
2022/12/13 21:46:07;;;;;;;13.20;8.48;;;15.00;99.90;;;;;;5076331;28;20029;-69
2022/12/13 21:48:33;;;;;;;13.32;9.18;;;15.00;99.90;;;;;;5077012;28;20028;-70
2022/12/13 21:51:00;;;;;;;14.57;8.68;;;14.90;99.90;;;;;;5077764;28;20116;-70
2022/12/13 21:53:26;;;;;;;12.18;8.75;;;14.90;99.90;;;;;;5076623;28;20494;-70
2022/12/13 21:59:14;;;;;;;12.05;7.68;;;14.90;99.90;;;;;;5077332;28;20151;-70
2022/12/13 22:01:22;;;;;;;10.52;8.00;;;14.80;99.90;;;;;;5077130;28;20051;-69
2022/12/13 22:03:48;;;;;;;14.70;8.40;;;14.80;99.90;;;;;;5077649;28;20373;-70
2022/12/13 22:06:14;;;;;;;14.85;9.10;;;14.80;99.90;;;;;;5059602;28;20038;-70
2022/12/13 22:08:40;;;;;;;13.70;9.50;;;14.80;99.90;;;;;;5076416;28;20537;-69
2022/12/13 22:11:12;;;;;;;13.02;9.85;;;14.80;99.90;;;;;;5077105;28;20033;-70
2022/12/13 22:13:38;;;;;;;12.90;9.95;;;14.80;99.90;;;;;;5076844;28;20049;-69
2022/12/13 22:16:05;;;;;;;13.43;10.10;;;14.70;99.90;;;;;;5076126;28;20063;-70
2022/12/13 22:18:31;;;;;;;14.48;9.23;;;14.70;99.90;;;;;;5077190;28;20042;-70
2022/12/13 22:20:57;;;;;;;13.48;8.60;;;14.70;99.90;;;;;;5077202;28;20036;-70
2022/12/13 22:23:23;;;;;;;13.68;8.52;;;14.70;99.90;;;;;;5077023;28;20082;-69
2022/12/13 22:25:50;;;;;;;16.25;8.88;;;14.70;99.90;;;;;;5076688;28;20059;-70
2022/12/13 22:28:16;;;;;;;13.18;9.00;;;14.60;99.90;;;;;;5076632;28;20051;-70
2022/12/13 22:30:42;;;;;;;17.25;9.20;;;14.60;99.90;;;;;;5076633;28;20032;-69
2022/12/13 22:33:08;;;;;;;13.70;10.07;;;14.60;99.90;;;;;;5059376;28;20055;-70
2022/12/13 22:35:36;;;;;;;12.75;9.88;;;14.60;99.90;;;;;;5056679;28;20040;-70
2022/12/13 22:38:02;;;;;;;14.90;10.18;;;14.50;99.90;;;;;;5057060;28;20036;-69
2022/12/13 22:40:28;;;;;;;13.60;9.73;;;14.60;99.90;;;;;;5056273;28;20037;-70
2022/12/13 22:42:53;;;;;;;15.27;9.85;;;14.50;99.90;;;;;;5056515;28;20040;-71
2022/12/13 22:45:19;;;;;;;13.48;9.55;;;14.50;99.90;;;;;;5056399;28;20420;-70
2022/12/13 22:47:45;;;;;;;13.18;8.27;;;14.50;99.90;;;;;;5056572;28;20029;-70
2022/12/13 22:50:11;;;;;;;13.55;9.52;;;14.40;99.90;;;;;;5072544;28;20037;-70
2022/12/13 22:52:37;;;;;;;11.32;7.78;;;14.40;99.90;;;;;;5055523;28;20036;-70
2022/12/13 22:55:03;;;;;;;13.32;7.95;;;14.40;99.90;;;;;;5056730;28;20021;-70
2022/12/13 22:57:29;;;;;;;13.38;8.25;;;14.40;99.90;;;;;;5055452;28;20037;-70
2022/12/13 22:59:55;;;;;;;11.35;8.65;;;14.40;99.90;;;;;;5055534;28;20040;-70
2022/12/13 23:02:21;;;;;;;12.10;8.27;;;14.40;99.90;;;;;;5055731;28;20063;-70
2022/12/13 23:04:47;;;;;;;12.60;7.90;;;14.30;99.90;;;;;;5056488;28;20040;-70
2022/12/13 23:07:13;;;;;;;12.48;7.90;;;14.30;99.90;;;;;;5055352;28;20108;-70
2022/12/13 23:09:39;;;;;;;14.07;8.45;;;14.30;99.90;;;;;;5055450;28;20033;-70
2022/12/13 23:14:50;;;;;;;11.88;8.32;;;14.20;99.90;;;;;;5055413;28;20305;-70
2022/12/13 23:17:16;;;;;;;13.93;8.85;;;14.20;99.90;;;;;;5055682;28;20025;-70
2022/12/13 23:19:42;;;;;;;11.25;7.97;;;14.20;99.90;;;;;;5055992;28;20033;-70
2022/12/13 23:22:08;;;;;;;12.25;8.57;;;14.20;99.90;;;;;;5054673;28;20037;-70
2022/12/13 23:24:34;;;;;;;13.80;9.25;;;14.10;99.90;;;;;;5055635;28;20039;-70
2022/12/13 23:27:00;;;;;;;13.30;9.35;;;14.10;99.90;;;;;;5055547;28;20111;-70
2022/12/13 23:29:26;;;;;;;11.85;8.10;;;14.10;99.90;;;;;;5055565;28;20024;-70
2022/12/13 23:31:52;;;;;;;13.48;8.18;;;14.10;99.90;;;;;;5043275;28;20387;-71
2022/12/13 23:34:18;;;;;;;14.10;9.23;;;14.10;99.90;;;;;;5074779;28;20102;-70
2022/12/13 23:36:43;;;;;;;12.85;8.57;;;14.10;99.90;;;;;;5074961;28;20067;-70
2022/12/13 23:39:10;;;;;;;11.52;8.73;;;14.10;99.90;;;;;;5075063;28;20066;-71
2022/12/13 23:41:36;;;;;;;13.73;8.80;;;14.00;99.90;;;;;;5075173;28;20028;-70
2022/12/13 23:44:03;;;;;;;13.15;9.10;;;14.00;99.90;;;;;;5075432;28;20031;-71
2022/12/13 23:46:32;;;;;;;11.35;8.15;;;14.00;99.90;;;;;;5075025;28;20062;-70
2022/12/13 23:48:59;;;;;;;12.85;8.48;;;14.00;99.90;;;;;;5075739;28;20036;-70
2022/12/13 23:51:26;;;;;;;13.45;8.70;;;13.90;99.90;;;;;;5074625;28;20029;-70
2022/12/13 23:53:53;;;;;;;11.43;7.88;;;13.90;99.90;;;;;;5075569;28;20109;-70
2022/12/13 23:56:19;;;;;;;11.93;8.75;;;13.90;99.90;;;;;;5075308;28;20439;-70
2022/12/13 23:58:46;;;;;;;11.50;8.73;;;13.90;99.90;;;;;;5075203;28;20033;-70
